createdAt,value
2023-04-02T00:00:04.337Z,99.09
2023-04-02T00:01:04.338Z,98.58
2023-04-02T00:02:04.359Z,98.68
2023-04-02T00:03:04.433Z,98.62
2023-04-02T00:04:04.371Z,98.58
2023-04-02T00:05:04.306Z,98.52
2023-04-02T00:06:04.283Z,98.78
2023-04-02T00:07:04.285Z,99.09
2023-04-02T00:08:04.874Z,98.58
2023-04-02T00:09:05.270Z,98.88
2023-04-02T00:10:04.272Z,98.72
2023-04-02T00:11:04.247Z,98.72
2023-04-02T00:12:04.242Z,98.47
2023-04-02T00:13:05.201Z,98.83
2023-04-02T00:14:04.218Z,99.34
2023-04-02T00:15:04.227Z,98.58
2023-04-02T00:16:04.240Z,99.19
2023-04-02T00:17:05.785Z,98.62
2023-04-02T00:18:04.219Z,98.62
2023-04-02T00:19:04.187Z,98.72
2023-04-02T00:20:04.173Z,98.58
2023-04-02T00:21:04.167Z,99.13
2023-04-02T00:23:34.079Z,98.83
2023-04-02T00:24:35.182Z,99.40
2023-04-02T00:25:35.388Z,98.72
2023-04-02T00:26:36.988Z,99.85
2023-04-02T00:27:35.137Z,99.44
2023-04-02T00:28:37.003Z,99.95
2023-04-02T00:29:35.117Z,99.54
2023-04-02T00:30:35.145Z,99.24
2023-04-02T00:31:37.061Z,99.75
2023-04-02T00:32:35.136Z,99.44
2023-04-02T00:33:37.918Z,99.99
2023-04-02T00:34:35.103Z,99.99
2023-04-02T00:35:36.362Z,99.80
2023-04-02T00:36:35.083Z,99.65
2023-04-02T00:37:35.066Z,99.90
2023-04-02T00:38:35.060Z,96.77
2023-04-02T00:39:35.052Z,96.66
2023-04-02T00:40:35.915Z,96.30
2023-04-02T00:41:35.039Z,96.70
2023-04-02T00:42:35.010Z,96.23
2023-04-02T00:43:35.021Z,96.14
2023-04-02T00:44:35.012Z,96.69
2023-04-02T00:45:35.115Z,97.72
2023-04-02T00:46:34.982Z,98.44
2023-04-02T00:47:34.984Z,98.85
2023-04-02T00:48:34.961Z,97.05
2023-04-02T00:49:34.967Z,98.24
2023-04-02T00:50:34.957Z,98.49
2023-04-02T00:51:34.945Z,99.21
2023-04-02T00:52:34.945Z,98.59
2023-04-02T00:53:34.932Z,96.84
2023-04-02T00:54:34.925Z,97.66
2023-04-02T00:55:35.367Z,98.38
2023-04-02T00:56:34.915Z,97.71
2023-04-02T00:57:34.949Z,97.91
2023-04-02T00:58:34.888Z,97.50
2023-04-02T00:59:35.017Z,97.71
2023-04-02T01:00:34.874Z,96.58
2023-04-02T01:01:35.050Z,96.72
2023-04-02T01:02:34.898Z,96.58
2023-04-02T01:03:35.359Z,97.55
2023-04-02T01:04:39.131Z,98.16
2023-04-02T01:05:36.926Z,98.27
2023-04-02T01:06:37.499Z,97.14
2023-04-02T01:07:34.811Z,96.93
2023-04-02T01:08:34.820Z,96.83
2023-04-02T01:09:34.797Z,96.93
2023-04-02T01:10:34.794Z,97.34
2023-04-02T01:11:34.783Z,97.14
2023-04-02T01:12:34.787Z,96.83
2023-04-02T01:13:34.773Z,97.14
2023-04-02T01:14:34.779Z,96.72
2023-04-02T01:15:34.990Z,96.72
2023-04-02T01:16:34.753Z,96.83
2023-04-02T01:17:34.755Z,96.21
2023-04-02T01:18:34.720Z,97.14
2023-04-02T01:19:34.732Z,97.34
2023-04-02T01:20:34.719Z,97.14
2023-04-02T01:21:34.712Z,96.83
2023-04-02T01:22:34.699Z,97.03
2023-04-02T01:23:34.702Z,96.21
2023-04-02T01:24:34.690Z,96.77
2023-04-02T01:25:34.870Z,97.14
2023-04-02T01:26:34.667Z,97.14
2023-04-02T01:27:34.655Z,97.14
2023-04-02T01:28:34.642Z,97.18
2023-04-02T01:29:34.664Z,96.97
2023-04-02T01:30:35.492Z,96.46
2023-04-02T01:31:34.696Z,96.56
2023-04-02T01:32:34.632Z,95.84
2023-04-02T01:33:34.622Z,96.67
2023-04-02T01:34:34.609Z,95.27
2023-04-02T01:35:34.779Z,95.06
2023-04-02T01:36:34.575Z,95.48
2023-04-02T01:37:34.585Z,95.48
2023-04-02T01:38:34.579Z,95.48
2023-04-02T01:39:34.568Z,94.76
2023-04-02T01:40:34.564Z,94.85
2023-04-02T01:41:34.539Z,94.90
2023-04-02T01:42:34.518Z,95.62
2023-04-02T01:43:34.528Z,95.73
2023-04-02T01:44:34.528Z,95.52
2023-04-02T01:45:34.580Z,95.56
2023-04-02T01:46:34.533Z,96.08
2023-04-02T01:47:34.529Z,96.80
2023-04-02T01:48:34.483Z,96.08
2023-04-02T01:49:34.504Z,96.28
2023-04-02T01:50:34.466Z,96.18
2023-04-02T01:51:34.457Z,95.92
2023-04-02T01:52:34.454Z,96.44
2023-04-02T01:53:34.449Z,96.80
2023-04-02T01:54:34.442Z,96.80
2023-04-02T01:55:34.584Z,96.44
2023-04-02T01:56:36.985Z,95.40
2023-04-02T01:57:35.471Z,95.56
2023-04-02T01:58:34.400Z,95.81
2023-04-02T01:59:35.904Z,96.74
2023-04-02T02:00:34.425Z,96.74
2023-04-02T02:01:34.368Z,96.84
2023-04-02T02:02:34.524Z,96.74
2023-04-02T02:03:34.360Z,96.74
2023-04-02T02:04:34.379Z,95.92
2023-04-02T02:05:34.616Z,96.28
2023-04-02T02:06:34.344Z,96.95
2023-04-02T02:07:34.327Z,96.23
2023-04-02T02:08:34.312Z,96.84
2023-04-02T02:09:34.313Z,96.23
2023-04-02T02:10:34.300Z,96.84
2023-04-02T02:11:34.316Z,96.64
2023-04-02T02:12:35.299Z,96.53
2023-04-02T02:13:34.280Z,96.84
2023-04-02T02:14:34.937Z,96.48
2023-04-02T02:15:34.562Z,96.99
2023-04-02T02:16:34.291Z,96.99
2023-04-02T02:17:34.257Z,96.48
2023-04-02T02:18:34.284Z,96.37
2023-04-02T02:19:34.227Z,97.09
2023-04-02T02:20:34.248Z,96.48
2023-04-02T02:21:34.220Z,96.89
2023-04-02T02:22:34.226Z,96.79
2023-04-02T02:23:34.211Z,97.41
2023-04-02T02:24:34.199Z,97.25
2023-04-02T02:25:34.480Z,97.41
2023-04-02T02:26:36.036Z,97.30
2023-04-02T02:27:34.172Z,97.04
2023-04-02T02:28:34.169Z,97.34
2023-04-02T02:29:34.156Z,97.41
2023-04-02T02:30:34.144Z,97.25
2023-04-02T02:31:34.165Z,97.34
2023-04-02T02:32:34.158Z,97.66
2023-04-02T02:33:34.145Z,97.55
2023-04-02T02:34:34.114Z,97.34
2023-04-02T02:35:34.505Z,97.76
2023-04-02T02:36:34.106Z,97.34
2023-04-02T02:37:34.095Z,97.45
2023-04-02T02:38:34.081Z,97.66
2023-04-02T02:39:34.548Z,97.55
2023-04-02T02:40:34.055Z,97.04
2023-04-02T02:41:34.059Z,97.04
2023-04-02T02:42:34.050Z,97.25
2023-04-02T02:43:34.049Z,97.34
2023-04-02T02:44:34.054Z,96.94
2023-04-02T02:45:34.304Z,97.50
2023-04-02T02:46:34.038Z,97.29
2023-04-02T02:47:33.998Z,97.34
2023-04-02T02:48:34.003Z,97.39
2023-04-02T02:49:34.011Z,97.55
2023-04-02T02:50:33.991Z,97.19
2023-04-02T02:51:33.991Z,97.50
2023-04-02T02:52:33.986Z,98.01
2023-04-02T02:53:33.956Z,98.11
2023-04-02T02:54:33.953Z,98.43
2023-04-02T02:55:34.299Z,99.25
2023-04-02T02:56:33.934Z,98.01
2023-04-02T02:57:34.006Z,98.32
2023-04-02T02:58:33.912Z,99.46
2023-04-02T02:59:33.917Z,99.15
2023-04-02T03:00:35.516Z,98.99
2023-04-02T03:01:33.949Z,99.61
2023-04-02T03:02:33.946Z,99.92
2023-04-02T03:03:34.280Z,99.96
2023-04-02T03:04:33.877Z,99.99
2023-04-02T03:05:34.965Z,99.99
2023-04-02T03:06:33.878Z,99.99
2023-04-02T03:07:33.841Z,99.99
2023-04-02T03:08:33.843Z,99.99
2023-04-02T03:09:33.830Z,99.99
2023-04-02T03:10:33.823Z,99.65
2023-04-02T03:11:33.818Z,99.96
2023-04-02T03:12:33.803Z,99.99
2023-04-02T03:13:33.797Z,99.55
2023-04-02T03:14:33.802Z,99.99
2023-04-02T03:15:34.112Z,99.99
2023-04-02T03:16:33.783Z,99.99
2023-04-02T03:17:33.772Z,99.86
2023-04-02T03:18:33.753Z,99.44
2023-04-02T03:19:33.744Z,99.24
2023-04-02T03:20:33.753Z,99.96
2023-04-02T03:21:33.744Z,99.80
2023-04-02T03:22:33.734Z,99.49
2023-04-02T03:23:33.728Z,99.04
2023-04-02T03:24:33.711Z,99.14
2023-04-02T03:25:34.004Z,99.80
2023-04-02T03:26:33.701Z,99.49
2023-04-02T03:27:33.693Z,99.86
2023-04-02T03:28:33.685Z,99.65
2023-04-02T03:29:33.680Z,99.99
2023-04-02T03:30:34.059Z,99.44
2023-04-02T03:31:33.689Z,99.14
2023-04-02T03:32:33.714Z,99.24
2023-04-02T03:33:33.646Z,99.60
2023-04-02T03:34:33.631Z,99.18
2023-04-02T03:35:34.001Z,99.04
2023-04-02T03:36:33.613Z,98.15
2023-04-02T03:37:33.621Z,99.44
2023-04-02T03:38:33.595Z,99.34
2023-04-02T03:39:33.598Z,98.41
2023-04-02T03:40:33.590Z,98.10
2023-04-02T03:41:33.597Z,98.21
2023-04-02T03:42:33.570Z,98.05
2023-04-02T03:43:33.576Z,98.35
2023-04-02T03:44:33.553Z,98.25
2023-04-02T03:45:33.779Z,97.63
2023-04-02T03:46:33.554Z,98.10
2023-04-02T03:47:33.577Z,98.25
2023-04-02T03:48:33.532Z,98.56
2023-04-02T03:49:33.511Z,98.35
2023-04-02T03:50:33.519Z,98.35
2023-04-02T03:51:33.507Z,97.89
2023-04-02T03:52:33.507Z,98.25
2023-04-02T03:53:34.496Z,98.52
2023-04-02T03:54:33.496Z,97.74
2023-04-02T03:55:33.838Z,97.63
2023-04-02T03:56:33.461Z,97.63
2023-04-02T03:57:33.480Z,97.74
2023-04-02T03:58:33.444Z,97.84
2023-04-02T03:59:33.445Z,97.32
2023-04-02T04:00:33.429Z,97.59
2023-04-02T04:01:33.448Z,97.01
2023-04-02T04:02:34.072Z,96.59
2023-04-02T04:03:33.405Z,97.32
2023-04-02T04:04:33.438Z,97.42
2023-04-02T04:05:33.631Z,97.32
2023-04-02T04:06:34.387Z,97.63
2023-04-02T04:07:33.364Z,97.22
2023-04-02T04:08:33.372Z,97.53
2023-04-02T04:09:33.391Z,97.63
2023-04-02T04:10:33.349Z,98.15
2023-04-02T04:11:33.339Z,97.79
2023-04-02T04:12:33.326Z,98.46
2023-04-02T04:13:34.321Z,98.21
2023-04-02T04:14:33.324Z,98.46
2023-04-02T04:15:33.656Z,98.05
2023-04-02T04:16:33.345Z,98.15
2023-04-02T04:17:33.299Z,97.63
2023-04-02T04:18:33.278Z,97.59
2023-04-02T04:19:33.266Z,97.01
2023-04-02T04:20:34.292Z,95.46
2023-04-02T04:21:33.271Z,95.77
2023-04-02T04:22:33.256Z,96.29
2023-04-02T04:23:33.264Z,97.11
2023-04-02T04:24:33.244Z,96.12
2023-04-02T04:25:33.466Z,97.06
2023-04-02T04:26:33.233Z,96.91
2023-04-02T04:27:35.054Z,97.01
2023-04-02T04:28:33.216Z,96.19
2023-04-02T04:29:33.198Z,95.50
2023-04-02T04:30:33.203Z,96.02
2023-04-02T04:31:33.229Z,95.81
2023-04-02T04:32:33.211Z,96.12
2023-04-02T04:33:33.979Z,96.02
2023-04-02T04:34:33.172Z,97.20
2023-04-02T04:35:33.208Z,96.44
2023-04-02T04:36:33.153Z,95.24
2023-04-02T04:37:33.142Z,95.14
2023-04-02T04:38:33.158Z,95.86
2023-04-02T04:39:33.118Z,95.54
2023-04-02T04:40:33.109Z,95.54
2023-04-02T04:41:33.110Z,95.54
2023-04-02T04:42:33.123Z,95.54
2023-04-02T04:43:33.105Z,95.86
2023-04-02T04:44:33.085Z,95.54
2023-04-02T04:45:33.231Z,95.39
2023-04-02T04:46:33.079Z,95.54
2023-04-02T04:47:33.090Z,96.27
2023-04-02T04:48:35.230Z,96.06
2023-04-02T04:49:34.030Z,96.17
2023-04-02T04:50:34.037Z,95.54
2023-04-02T04:51:33.048Z,95.59
2023-04-02T04:52:33.048Z,95.18
2023-04-02T04:53:33.042Z,95.34
2023-04-02T04:54:32.994Z,95.34
2023-04-02T04:55:34.240Z,95.14
2023-04-02T04:56:33.022Z,96.06
2023-04-02T04:57:32.991Z,95.96
2023-04-02T04:58:32.994Z,95.90
2023-04-02T04:59:32.969Z,95.54
2023-04-02T05:00:32.981Z,95.49
2023-04-02T05:01:33.062Z,95.59
2023-04-02T05:02:32.960Z,95.34
2023-04-02T05:03:32.945Z,96.27
2023-04-02T05:04:32.978Z,96.17
2023-04-02T05:05:33.110Z,96.48
2023-04-02T05:06:32.923Z,97.10
2023-04-02T05:07:32.914Z,97.00
2023-04-02T05:08:32.913Z,97.00
2023-04-02T05:09:32.899Z,95.96
2023-04-02T05:10:32.897Z,95.24
2023-04-02T05:11:32.874Z,94.93
2023-04-02T05:12:32.884Z,94.66
2023-04-02T05:13:32.899Z,94.66
2023-04-02T05:14:32.865Z,95.86
2023-04-02T05:15:32.890Z,96.17
2023-04-02T05:16:32.933Z,95.80
2023-04-02T05:17:32.909Z,95.49
2023-04-02T05:18:32.832Z,94.72
2023-04-02T05:19:32.834Z,95.65
2023-04-02T05:20:32.839Z,95.18
2023-04-02T05:21:32.804Z,95.39
2023-04-02T05:22:32.786Z,95.49
2023-04-02T05:23:34.464Z,94.97
2023-04-02T05:24:32.773Z,94.35
2023-04-02T05:25:32.943Z,94.56
2023-04-02T05:26:32.754Z,93.83
2023-04-02T05:27:32.761Z,94.14
2023-04-02T05:28:32.744Z,93.31
2023-04-02T05:29:32.737Z,94.04
2023-04-02T05:30:32.743Z,94.35
2023-04-02T05:31:32.773Z,95.07
2023-04-02T05:32:32.738Z,94.97
2023-04-02T05:33:32.719Z,95.70
2023-04-02T05:34:32.698Z,95.28
2023-04-02T05:35:32.694Z,95.49
2023-04-02T05:36:32.692Z,94.14
2023-04-02T05:37:32.674Z,93.93
2023-04-02T05:38:32.661Z,93.66
2023-04-02T05:39:32.660Z,93.87
2023-04-02T05:40:32.648Z,93.98
2023-04-02T05:41:32.648Z,94.39
2023-04-02T05:42:32.637Z,94.70
2023-04-02T05:43:33.552Z,94.29
2023-04-02T05:44:32.618Z,93.25
2023-04-02T05:45:32.699Z,93.98
2023-04-02T05:46:32.655Z,93.77
2023-04-02T05:47:32.655Z,93.77
2023-04-02T05:48:32.613Z,93.98
2023-04-02T05:49:32.596Z,93.46
2023-04-02T05:50:32.569Z,92.98
2023-04-02T05:51:33.552Z,93.40
2023-04-02T05:52:32.546Z,93.40
2023-04-02T05:53:32.558Z,93.50
2023-04-02T05:54:32.584Z,93.56
2023-04-02T05:55:33.684Z,93.56
2023-04-02T05:56:32.530Z,94.08
2023-04-02T05:57:42.381Z,93.25
2023-04-02T05:58:36.712Z,92.43
2023-04-02T05:59:33.498Z,93.46
2023-04-02T06:00:32.483Z,93.87
2023-04-02T06:01:32.488Z,92.84
2023-04-02T06:02:32.547Z,93.04
2023-04-02T06:03:32.589Z,93.19
2023-04-02T06:04:32.447Z,93.35
2023-04-02T06:05:33.722Z,93.35
2023-04-02T06:06:32.450Z,93.46
2023-04-02T06:07:32.433Z,92.68
2023-04-02T06:08:32.424Z,92.57
2023-04-02T06:09:32.439Z,92.94
2023-04-02T06:10:33.010Z,92.88
2023-04-02T06:11:32.423Z,92.88
2023-04-02T06:12:35.064Z,92.57
2023-04-02T06:13:32.394Z,92.68
2023-04-02T06:14:32.409Z,92.57
2023-04-02T06:15:32.387Z,91.95
2023-04-02T06:16:32.394Z,91.85
2023-04-02T06:17:32.430Z,92.01
2023-04-02T06:18:32.379Z,91.74
2023-04-02T06:19:32.371Z,92.57
2023-04-02T06:20:32.358Z,92.47
2023-04-02T06:21:32.349Z,91.74
2023-04-02T06:22:33.968Z,92.01
2023-04-02T06:23:32.320Z,91.39
2023-04-02T06:24:32.338Z,91.22
2023-04-02T06:25:32.318Z,91.43
2023-04-02T06:26:32.293Z,91.12
2023-04-02T06:27:33.292Z,91.02
2023-04-02T06:28:32.935Z,92.05
2023-04-02T06:29:32.330Z,91.91
2023-04-02T06:30:36.138Z,92.22
2023-04-02T06:31:34.083Z,91.33
2023-04-02T06:32:32.345Z,90.91
2023-04-02T06:33:32.254Z,92.05
2023-04-02T06:34:32.233Z,92.05
2023-04-02T06:35:34.361Z,92.57
2023-04-02T06:36:32.242Z,92.32
2023-04-02T06:37:32.217Z,92.47
2023-04-02T06:38:32.211Z,92.32
2023-04-02T06:39:32.197Z,92.68
2023-04-02T06:40:32.181Z,92.88
2023-04-02T06:41:32.187Z,92.78
2023-04-02T06:42:32.179Z,92.43
2023-04-02T06:43:32.174Z,92.26
2023-04-02T06:44:32.155Z,91.64
2023-04-02T06:45:32.151Z,92.11
2023-04-02T06:46:32.273Z,91.64
2023-04-02T06:47:32.199Z,92.26
2023-04-02T06:48:32.184Z,92.26
2023-04-02T06:49:33.087Z,92.20
2023-04-02T06:50:32.114Z,92.05
2023-04-02T06:51:32.100Z,92.05
2023-04-02T06:52:34.057Z,91.43
2023-04-02T06:53:33.070Z,90.50
2023-04-02T06:54:32.096Z,91.12
2023-04-02T06:55:32.103Z,91.22
2023-04-02T06:56:32.065Z,90.60
2023-04-02T06:57:32.149Z,91.74
2023-04-02T06:58:32.052Z,90.91
2023-04-02T06:59:32.092Z,91.12
2023-04-02T07:00:32.050Z,91.53
2023-04-02T07:01:32.094Z,90.91
2023-04-02T07:02:32.097Z,91.64
2023-04-02T07:03:32.004Z,91.64
2023-04-02T07:04:32.047Z,91.43
2023-04-02T07:05:32.779Z,91.39
2023-04-02T07:06:33.562Z,91.08
2023-04-02T07:07:31.987Z,91.08
2023-04-02T07:08:31.983Z,91.39
2023-04-02T07:09:31.967Z,90.25
2023-04-02T07:10:31.978Z,90.29
2023-04-02T07:11:32.559Z,90.45
2023-04-02T07:12:31.951Z,90.50
2023-04-02T07:13:31.959Z,90.35
2023-04-02T07:14:31.941Z,89.62
2023-04-02T07:15:31.928Z,89.87
2023-04-02T07:16:31.978Z,90.19
2023-04-02T07:17:31.936Z,90.45
2023-04-02T07:18:31.910Z,90.60
2023-04-02T07:19:31.894Z,90.29
2023-04-02T07:20:31.878Z,89.56
2023-04-02T07:21:32.497Z,89.56
2023-04-02T07:22:31.870Z,89.25
2023-04-02T07:23:31.864Z,90.19
2023-04-02T07:24:31.877Z,89.67
2023-04-02T07:25:31.837Z,90.19
2023-04-02T07:26:31.837Z,90.66
2023-04-02T07:27:31.830Z,90.08
2023-04-02T07:28:31.797Z,89.98
2023-04-02T07:29:33.565Z,90.70
2023-04-02T07:30:31.821Z,90.50
2023-04-02T07:31:31.906Z,90.08
2023-04-02T07:32:31.843Z,89.46
2023-04-02T07:33:32.501Z,90.08
2023-04-02T07:34:31.776Z,90.08
2023-04-02T07:35:31.785Z,90.70
2023-04-02T07:36:31.741Z,90.50
2023-04-02T07:37:33.077Z,90.64
2023-04-02T07:38:31.737Z,91.06
2023-04-02T07:39:31.746Z,90.44
2023-04-02T07:40:31.718Z,91.06
2023-04-02T07:41:31.710Z,91.74
2023-04-02T07:42:31.736Z,91.47
2023-04-02T07:43:31.697Z,91.53
2023-04-02T07:44:31.701Z,90.60
2023-04-02T07:45:31.688Z,90.91
2023-04-02T07:46:31.684Z,90.44
2023-04-02T07:47:31.703Z,90.44
2023-04-02T07:48:31.661Z,90.75
2023-04-02T07:49:33.493Z,91.47
2023-04-02T07:50:31.642Z,90.33
2023-04-02T07:51:31.633Z,89.86
2023-04-02T07:52:31.616Z,90.27
2023-04-02T07:53:31.635Z,90.06
2023-04-02T07:54:32.503Z,90.27
2023-04-02T07:55:31.601Z,90.06
2023-04-02T07:56:31.593Z,90.37
2023-04-02T07:57:31.649Z,89.86
2023-04-02T07:58:31.571Z,90.10
2023-04-02T07:59:31.587Z,90.58
2023-04-02T08:00:31.571Z,89.58
2023-04-02T08:01:31.566Z,90.17
2023-04-02T08:02:32.583Z,90.58
2023-04-02T08:03:31.673Z,91.20
2023-04-02T08:04:31.536Z,90.06
2023-04-02T08:05:31.515Z,90.58
2023-04-02T08:06:32.093Z,90.79
2023-04-02T08:07:31.509Z,90.69
2023-04-02T08:08:31.523Z,90.58
2023-04-02T08:09:31.487Z,90.33
2023-04-02T08:10:31.497Z,90.58
2023-04-02T08:11:32.058Z,90.02
2023-04-02T08:12:32.473Z,90.37
2023-04-02T08:13:31.463Z,90.37
2023-04-02T08:14:31.452Z,90.17
2023-04-02T08:15:34.340Z,90.06
2023-04-02T08:16:31.466Z,89.96
2023-04-02T08:17:32.104Z,90.37
2023-04-02T08:18:31.438Z,90.06
2023-04-02T08:19:36.952Z,89.65
2023-04-02T08:20:33.408Z,89.92
2023-04-02T08:21:32.991Z,89.29
2023-04-02T08:22:31.424Z,89.23
2023-04-02T08:23:31.410Z,89.34
2023-04-02T08:24:31.382Z,89.23
2023-04-02T08:25:31.398Z,89.03
2023-04-02T08:26:31.369Z,89.44
2023-04-02T08:27:31.363Z,89.03
2023-04-02T08:28:31.356Z,89.13
2023-04-02T08:29:31.337Z,89.06
2023-04-02T08:30:31.494Z,89.27
2023-04-02T08:31:31.323Z,90.17
2023-04-02T08:32:31.354Z,90.27
2023-04-02T08:33:31.318Z,89.96
2023-04-02T08:34:31.329Z,89.13
2023-04-02T08:35:32.102Z,89.23
2023-04-02T08:36:31.313Z,88.85
2023-04-02T08:37:31.285Z,89.17
2023-04-02T08:38:31.294Z,89.11
2023-04-02T08:39:31.274Z,89.58
2023-04-02T08:40:31.258Z,89.27
2023-04-02T08:41:35.119Z,89.79
2023-04-02T08:42:31.233Z,89.58
2023-04-02T08:43:31.241Z,89.21
2023-04-02T08:44:31.230Z,90.10
2023-04-02T08:45:31.227Z,90.31
2023-04-02T08:46:31.345Z,89.79
2023-04-02T08:47:31.220Z,89.79
2023-04-02T08:48:31.199Z,89.37
2023-04-02T08:49:32.093Z,89.23
2023-04-02T08:50:31.201Z,89.75
2023-04-02T08:51:32.010Z,89.17
2023-04-02T08:52:32.016Z,89.69
2023-04-02T08:53:31.170Z,89.79
2023-04-02T08:54:31.155Z,90.20
2023-04-02T08:55:32.195Z,88.96
2023-04-02T08:56:31.133Z,89.06
2023-04-02T08:57:32.136Z,89.54
2023-04-02T08:58:31.130Z,89.13
2023-04-02T08:59:31.109Z,88.09
2023-04-02T09:00:31.116Z,89.03
2023-04-02T09:01:31.109Z,88.36
2023-04-02T09:02:32.235Z,88.61
2023-04-02T09:03:31.099Z,87.95
2023-04-02T09:04:31.114Z,88.61
2023-04-02T09:05:31.068Z,88.61
2023-04-02T09:06:31.055Z,88.61
2023-04-02T09:07:31.088Z,88.61
2023-04-02T09:08:31.069Z,88.20
2023-04-02T09:09:31.050Z,87.99
2023-04-02T09:10:31.041Z,88.09
2023-04-02T09:11:31.035Z,88.61
2023-04-02T09:12:32.038Z,87.99
2023-04-02T09:13:31.042Z,88.20
2023-04-02T09:14:31.015Z,87.88
2023-04-02T09:15:32.624Z,87.68
2023-04-02T09:16:31.092Z,88.20
2023-04-02T09:17:36.946Z,87.68
2023-04-02T09:18:32.994Z,87.47
2023-04-02T09:19:30.957Z,87.57
2023-04-02T09:20:31.508Z,87.16
2023-04-02T09:21:30.968Z,87.78
2023-04-02T09:22:30.922Z,87.47
2023-04-02T09:23:31.976Z,87.26
2023-04-02T09:24:30.928Z,87.16
2023-04-02T09:25:30.918Z,87.43
2023-04-02T09:26:30.908Z,86.74
2023-04-02T09:27:30.919Z,85.71
2023-04-02T09:28:30.884Z,85.71
2023-04-02T09:29:30.894Z,86.60
2023-04-02T09:30:30.894Z,86.80
2023-04-02T09:31:30.891Z,86.60
2023-04-02T09:32:32.508Z,86.70
2023-04-02T09:33:30.867Z,86.49
2023-04-02T09:34:30.873Z,85.87
2023-04-02T09:35:30.845Z,85.46
2023-04-02T09:36:30.849Z,85.77
2023-04-02T09:37:30.831Z,85.56
2023-04-02T09:38:30.922Z,85.77
2023-04-02T09:39:30.821Z,85.31
2023-04-02T09:40:30.800Z,84.38
2023-04-02T09:41:30.786Z,85.00
2023-04-02T09:42:31.477Z,84.90
2023-04-02T09:43:30.776Z,85.63
2023-04-02T09:44:30.781Z,85.11
2023-04-02T09:45:31.601Z,85.42
2023-04-02T09:46:31.766Z,84.65
2023-04-02T09:48:37.049Z,84.69
2023-04-02T09:49:37.055Z,84.55
2023-04-02T09:50:38.139Z,84.13
2023-04-02T09:51:38.117Z,83.93
2023-04-02T09:52:38.124Z,83.89
2023-04-02T09:53:41.127Z,84.20
2023-04-02T09:54:38.120Z,83.58
2023-04-02T09:55:38.083Z,82.86
2023-04-02T09:56:39.914Z,83.78
2023-04-02T09:57:38.073Z,82.89
2023-04-02T09:58:38.092Z,83.20
2023-04-02T09:59:39.905Z,83.93
2023-04-02T10:00:38.050Z,83.83
2023-04-02T10:01:38.119Z,83.62
2023-04-02T10:02:38.060Z,84.03
2023-04-02T10:03:38.033Z,84.41
2023-04-02T10:04:38.085Z,84.03
2023-04-02T10:05:40.972Z,83.41
2023-04-02T10:06:39.006Z,83.68
2023-04-02T10:07:37.983Z,83.62
2023-04-02T10:08:38.914Z,83.83
2023-04-02T10:09:37.969Z,84.23
2023-04-02T10:10:37.986Z,84.44
2023-04-02T10:11:46.216Z,83.97
2023-04-02T10:12:39.956Z,84.48
2023-04-02T10:13:37.957Z,84.69
2023-04-02T10:14:37.946Z,84.13
2023-04-02T10:15:38.194Z,83.83
2023-04-02T10:16:37.952Z,84.03
2023-04-02T10:17:37.998Z,83.68
2023-04-02T10:18:37.920Z,82.75
2023-04-02T10:19:37.908Z,82.95
2023-04-02T10:20:50.542Z,83.26
2023-04-02T10:21:39.889Z,83.10
2023-04-02T10:22:37.888Z,84.59
2023-04-02T10:23:37.880Z,85.21
2023-04-02T10:24:38.393Z,85.42
2023-04-02T10:25:37.908Z,85.38
2023-04-02T10:26:37.853Z,85.73
2023-04-02T10:27:37.846Z,85.89
2023-04-02T10:28:37.827Z,85.69
2023-04-02T10:29:37.855Z,85.63
2023-04-02T10:31:25.311Z,85.73
2023-04-02T10:32:25.273Z,86.35
2023-04-02T10:33:25.220Z,86.76
2023-04-02T10:34:25.222Z,85.94
2023-04-02T10:35:28.101Z,85.77
2023-04-02T10:36:26.286Z,86.70
2023-04-02T10:37:26.291Z,86.80
2023-04-02T10:38:26.279Z,87.12
2023-04-02T10:39:26.271Z,86.80
2023-04-02T10:40:26.279Z,86.85
2023-04-02T10:41:26.264Z,87.01
2023-04-02T10:42:26.318Z,87.32
2023-04-02T10:43:26.263Z,87.43
2023-04-02T10:44:26.268Z,86.60
2023-04-02T10:45:26.247Z,86.39
2023-04-02T10:46:26.277Z,85.25
2023-04-02T10:47:27.308Z,85.77
2023-04-02T10:48:26.212Z,85.46
2023-04-02T10:49:26.289Z,85.71
2023-04-02T10:50:26.228Z,85.46
2023-04-02T10:51:28.091Z,85.04
2023-04-02T10:52:26.199Z,85.77
2023-04-02T10:53:26.197Z,85.66
2023-04-02T10:54:26.671Z,85.52
2023-04-02T10:55:26.163Z,84.75
2023-04-02T10:56:26.144Z,84.34
2023-04-02T10:57:27.107Z,84.38
2023-04-02T10:58:26.127Z,84.13
2023-04-02T10:59:26.162Z,84.48
2023-04-02T11:00:27.661Z,84.48
2023-04-02T11:01:26.138Z,84.17
2023-04-02T11:02:26.173Z,84.48
2023-04-02T11:03:26.211Z,85.31
2023-04-02T11:04:27.668Z,84.55
2023-04-02T11:05:26.079Z,84.13
2023-04-02T11:06:26.073Z,83.62
2023-04-02T11:07:26.068Z,84.23
2023-04-02T11:08:26.087Z,84.65
2023-04-02T11:09:26.050Z,83.83
2023-04-02T11:10:26.043Z,84.03
2023-04-02T11:11:26.034Z,83.20
2023-04-02T11:12:26.032Z,83.72
2023-04-02T11:13:26.004Z,83.86
2023-04-02T11:14:26.593Z,84.07
2023-04-02T11:15:26.655Z,84.90
2023-04-02T11:16:26.025Z,85.31
2023-04-02T11:17:26.022Z,85.31
2023-04-02T11:18:25.993Z,84.69
2023-04-02T11:19:25.962Z,85.06
2023-04-02T11:20:25.973Z,84.55
2023-04-02T11:21:25.947Z,83.93
2023-04-02T11:22:26.671Z,84.28
2023-04-02T11:23:25.937Z,84.48
2023-04-02T11:24:25.927Z,84.17
2023-04-02T11:25:25.909Z,85.25
2023-04-02T11:26:25.902Z,84.73
2023-04-02T11:27:25.903Z,85.97
2023-04-02T11:28:25.895Z,85.97
2023-04-02T11:29:25.896Z,85.97
2023-04-02T11:30:25.959Z,85.35
2023-04-02T11:31:25.960Z,85.87
2023-04-02T11:32:25.889Z,85.56
2023-04-02T11:33:35.849Z,85.14
2023-04-02T11:34:28.617Z,84.94
2023-04-02T11:35:25.859Z,85.25
2023-04-02T11:36:25.911Z,84.63
2023-04-02T11:37:25.819Z,85.56
2023-04-02T11:38:25.832Z,84.42
2023-04-02T11:39:25.838Z,84.67
2023-04-02T11:40:25.784Z,85.46
2023-04-02T11:41:25.811Z,83.73
2023-04-02T11:42:25.795Z,83.22
2023-04-02T11:43:26.671Z,83.22
2023-04-02T11:44:25.756Z,83.53
2023-04-02T11:45:37.617Z,84.31
2023-04-02T11:46:26.825Z,84.11
2023-04-02T11:47:25.783Z,84.05
2023-04-02T11:48:25.744Z,83.73
2023-04-02T11:49:25.721Z,83.42
2023-04-02T11:50:25.891Z,83.38
2023-04-02T11:51:25.705Z,83.59
2023-04-02T11:52:25.714Z,83.17
2023-04-02T11:53:26.687Z,82.86
2023-04-02T11:54:25.684Z,83.28
2023-04-02T11:55:25.674Z,83.17
2023-04-02T11:56:25.657Z,84.07
2023-04-02T11:57:25.719Z,83.65
2023-04-02T11:58:25.648Z,83.76
2023-04-02T11:59:25.669Z,83.24
2023-04-02T12:00:25.626Z,82.93
2023-04-02T12:01:25.626Z,82.93
2023-04-02T12:02:25.750Z,82.48
2023-04-02T12:03:25.629Z,82.20
2023-04-02T12:04:25.612Z,82.51
2023-04-02T12:05:25.634Z,82.68
2023-04-02T12:06:25.626Z,82.58
2023-04-02T12:07:25.578Z,81.65
2023-04-02T12:08:25.572Z,80.54
2023-04-02T12:09:25.563Z,81.37
2023-04-02T12:10:25.561Z,81.37
2023-04-02T12:11:25.563Z,81.79
2023-04-02T12:12:25.617Z,81.51
2023-04-02T12:13:25.552Z,81.82
2023-04-02T12:14:25.534Z,81.48
2023-04-02T12:15:25.523Z,80.79
2023-04-02T12:16:25.543Z,80.93
2023-04-02T12:17:25.535Z,80.89
2023-04-02T12:18:25.504Z,81.56
2023-04-02T12:19:25.487Z,80.89
2023-04-02T12:20:25.492Z,81.10
2023-04-02T12:21:27.206Z,80.89
2023-04-02T12:22:25.485Z,80.16
2023-04-02T12:23:25.451Z,80.37
2023-04-02T12:24:25.438Z,79.85
2023-04-02T12:25:25.463Z,80.23
2023-04-02T12:26:25.428Z,79.82
2023-04-02T12:27:25.432Z,79.13
2023-04-02T12:28:25.474Z,79.24
2023-04-02T12:29:25.453Z,79.82
2023-04-02T12:30:25.402Z,79.75
2023-04-02T12:31:25.437Z,79.03
2023-04-02T12:32:26.634Z,79.41
2023-04-02T12:33:26.111Z,79.10
2023-04-02T12:34:25.373Z,77.64
2023-04-02T12:35:25.390Z,78.16
2023-04-02T12:36:25.351Z,78.89
2023-04-02T12:37:25.339Z,79.71
2023-04-02T12:38:25.333Z,78.68
2023-04-02T12:39:27.924Z,78.37
2023-04-02T12:40:25.353Z,78.89
2023-04-02T12:41:25.298Z,79.30
2023-04-02T12:42:25.296Z,78.75
2023-04-02T12:43:25.297Z,77.85
2023-04-02T12:44:25.280Z,77.75
2023-04-02T12:45:27.164Z,78.27
2023-04-02T12:46:25.316Z,78.27
2023-04-02T12:47:25.253Z,77.85
2023-04-02T12:48:26.101Z,78.06
2023-04-02T12:49:26.238Z,78.47
2023-04-02T12:50:25.234Z,77.95
2023-04-02T12:51:27.888Z,77.64
2023-04-02T12:52:25.227Z,78.78
2023-04-02T12:53:25.210Z,77.92
2023-04-02T12:54:25.202Z,77.29
2023-04-02T12:55:25.211Z,77.85